Time;durP1;ratioP1;P1;durP2;ratioP2;P2;SDS_P1;SDS_P2;PMS_P1;PMS_P2;Temp;Humidity;BMP_temperature;BMP_pressure;BME280_temperature;BME280_humidity;BME280_pressure;Samples;Min_cycle;Max_cycle;Signal;HPM_P1;HPM_P2
2024/02/18 12:50:48;;;;;;;3.05;0.60;;;17.50;78.10;;;;;;6340933;27;20373;-84
2024/02/18 12:53:50;;;;;;;4.10;1.00;;;17.20;81.10;;;;;;6364566;27;20047;-85
2024/02/18 12:56:51;;;;;;;2.00;0.77;;;16.80;78.40;;;;;;6340197;28;20048;-85
2024/02/18 12:59:53;;;;;;;1.80;0.80;;;16.40;79.00;;;;;;6347996;27;20069;-85
2024/02/18 13:02:55;;;;;;;2.38;0.82;;;16.10;90.20;;;;;;6341855;28;20051;-84
2024/02/18 13:05:57;;;;;;;2.10;0.85;;;15.70;92.10;;;;;;6356078;27;20036;-84
2024/02/18 13:08:59;;;;;;;5.35;1.05;;;15.60;95.50;;;;;;6352454;28;20055;-85
2024/02/18 13:12:01;;;;;;;5.60;1.00;;;15.60;97.50;;;;;;6387749;27;20051;-87
2024/02/18 13:15:04;;;;;;;4.60;1.27;;;16.70;94.90;;;;;;6345324;28;20058;-85
2024/02/18 13:18:05;;;;;;;3.92;1.00;;;17.60;77.50;;;;;;6362197;28;20135;-85
2024/02/18 13:21:09;;;;;;;4.38;0.90;;;18.50;76.90;;;;;;6359497;28;20071;-87
2024/02/18 13:24:10;;;;;;;3.53;1.00;;;19.00;26.20;;;;;;6364229;27;20525;-92
2024/02/18 13:27:12;;;;;;;2.95;1.08;;;19.10;1.00;;;;;;6369443;28;20043;-90
2024/02/18 13:30:14;;;;;;;1.98;1.08;;;18.90;15.90;;;;;;6334107;28;20070;-84
2024/02/18 13:33:22;;;;;;;2.90;0.90;;;18.60;11.50;;;;;;6338805;28;20051;-85
2024/02/18 13:36:24;;;;;;;3.58;1.05;;;18.30;20.50;;;;;;6352396;28;20047;-90
2024/02/18 13:39:26;;;;;;;3.88;1.00;;;18.40;18.90;;;;;;6373718;28;20138;-93
2024/02/18 13:42:28;;;;;;;2.67;0.80;;;18.90;14.70;;;;;;6350120;27;20124;-91
2024/02/18 13:45:34;;;;;;;3.67;0.90;;;18.70;1.00;;;;;;6351282;27;20044;-91
2024/02/18 13:48:36;;;;;;;4.25;0.80;;;18.10;1.00;;;;;;6366691;27;20055;-91
2024/02/18 13:51:38;;;;;;;3.30;0.93;;;18.10;1.00;;;;;;6356363;28;20065;-90
2024/02/18 13:54:41;;;;;;;3.70;0.90;;;17.60;7.70;;;;;;6365256;27;20078;-92
2024/02/18 13:57:43;;;;;;;4.05;1.00;;;16.90;28.40;;;;;;6359399;28;20530;-89
2024/02/18 14:00:46;;;;;;;3.67;0.90;;;17.00;20.90;;;;;;6353326;27;20099;-89
2024/02/18 14:03:49;;;;;;;5.70;0.90;;;16.70;46.40;;;;;;6330027;28;20089;-91
2024/02/18 14:06:51;;;;;;;4.68;1.10;;;17.10;33.20;;;;;;6346179;28;20048;-93
2024/02/18 14:09:53;;;;;;;5.35;0.90;;;16.70;42.60;;;;;;6363177;28;20044;-92
2024/02/18 14:12:55;;;;;;;3.08;0.82;;;16.50;36.20;;;;;;6347975;28;20073;-91
2024/02/18 14:16:01;;;;;;;2.47;1.00;;;17.00;14.90;;;;;;6373737;28;20048;-92
2024/02/18 14:19:03;;;;;;;3.85;1.10;;;17.30;6.80;;;;;;6339389;28;20051;-90
2024/02/18 14:22:05;;;;;;;5.78;1.10;;;17.90;6.50;;;;;;6350531;28;20082;-93
2024/02/18 14:25:08;;;;;;;4.45;1.20;;;18.30;1.00;;;;;;6334487;28;20044;-88
2024/02/18 14:28:10;;;;;;;5.07;1.13;;;18.40;1.00;;;;;;6350513;28;20055;-93
2024/02/18 14:31:12;;;;;;;3.78;1.02;;;18.50;1.00;;;;;;6345161;28;20071;-90
2024/02/18 14:34:14;;;;;;;4.32;1.00;;;18.80;1.00;;;;;;6335108;28;20063;-89
2024/02/18 14:37:16;;;;;;;6.70;1.20;;;18.90;1.00;;;;;;6351076;28;20055;-90
2024/02/18 14:40:18;;;;;;;6.65;1.30;;;18.40;1.00;;;;;;6334151;28;20071;-89
2024/02/18 14:43:20;;;;;;;6.53;1.38;;;18.60;1.00;;;;;;6345306;28;20044;-90
2024/02/18 14:46:22;;;;;;;4.40;1.33;;;18.90;1.00;;;;;;6344147;28;20069;-90
2024/02/18 14:49:23;;;;;;;3.95;1.35;;;19.10;1.00;;;;;;6327667;28;20063;-91
2024/02/18 14:52:36;;;;;;;3.50;1.17;;;19.30;1.00;;;;;;6315529;28;20040;-89
2024/02/18 14:55:39;;;;;;;4.05;1.20;;;19.20;1.00;;;;;;6327665;28;20056;-91
2024/02/18 14:58:40;;;;;;;4.85;0.90;;;18.50;1.00;;;;;;6350971;28;20044;-88
2024/02/18 15:01:42;;;;;;;6.00;1.20;;;17.80;1.00;;;;;;6333198;28;20048;-92
2024/02/18 15:04:44;;;;;;;5.32;1.17;;;17.90;1.00;;;;;;6331764;28;20632;-87
2024/02/18 15:07:46;;;;;;;6.18;1.20;;;18.10;1.00;;;;;;6350632;28;20098;-89
2024/02/18 15:10:48;;;;;;;5.47;1.40;;;18.40;1.00;;;;;;6332156;28;20059;-94
2024/02/18 15:13:50;;;;;;;6.43;1.70;;;18.30;1.00;;;;;;6329127;28;20043;-90
2024/02/18 15:16:52;;;;;;;6.18;1.25;;;18.20;1.00;;;;;;6329633;28;20055;-92
2024/02/18 15:19:57;;;;;;;6.22;1.05;;;17.70;1.00;;;;;;6329350;28;20074;-90
2024/02/18 15:22:59;;;;;;;6.35;1.67;;;17.10;1.00;;;;;;6354455;28;20052;-88
2024/02/18 15:26:00;;;;;;;7.82;1.38;;;16.50;1.00;;;;;;6328087;28;20048;-90
2024/02/18 15:29:02;;;;;;;8.63;1.50;;;16.10;1.00;;;;;;6336535;28;20068;-88
2024/02/18 15:32:04;;;;;;;4.63;1.10;;;15.80;1.00;;;;;;6346803;28;20051;-91
2024/02/18 15:35:06;;;;;;;5.75;1.58;;;15.60;1.00;;;;;;6327371;28;20062;-91
2024/02/18 15:38:08;;;;;;;9.48;1.38;;;15.40;1.00;;;;;;6336172;28;20056;-95
2024/02/18 15:41:10;;;;;;;7.18;1.25;;;15.40;1.00;;;;;;6342015;28;20048;-91
2024/02/18 15:44:12;;;;;;;5.60;1.38;;;15.30;1.00;;;;;;6336202;28;20059;-93
2024/02/18 15:47:15;;;;;;;10.63;1.67;;;15.30;4.80;;;;;;6339979;28;20115;-92
2024/02/18 15:50:17;;;;;;;5.95;1.13;;;15.20;1.00;;;;;;6332546;28;20067;-83
2024/02/18 15:53:19;;;;;;;8.50;1.55;;;15.20;3.30;;;;;;6333535;28;20761;-92
2024/02/18 15:56:23;;;;;;;6.80;1.55;;;15.20;4.20;;;;;;6339158;28;20560;-93
2024/02/18 15:59:25;;;;;;;9.07;1.38;;;15.20;5.60;;;;;;6357673;28;20046;-93
2024/02/18 16:02:26;;;;;;;8.23;1.30;;;15.10;15.00;;;;;;6336208;28;20055;-92
2024/02/18 16:05:29;;;;;;;5.97;1.20;;;15.00;13.70;;;;;;6365726;28;20059;-92
2024/02/18 16:08:31;;;;;;;7.95;1.80;;;14.90;16.50;;;;;;6334028;28;20074;-94
2024/02/18 16:11:33;;;;;;;5.50;1.63;;;14.80;21.10;;;;;;6365547;28;20054;-92
2024/02/18 16:14:35;;;;;;;8.70;1.45;;;14.70;25.30;;;;;;6342169;28;20078;-93
2024/02/18 16:17:37;;;;;;;8.50;1.50;;;14.60;25.00;;;;;;6338718;28;20139;-93
2024/02/18 16:20:39;;;;;;;6.53;1.50;;;14.50;27.80;;;;;;6364205;28;20375;-93
2024/02/18 16:23:41;;;;;;;7.88;1.70;;;14.80;35.60;;;;;;6337371;28;20100;-93
2024/02/18 16:26:54;;;;;;;7.95;1.90;;;14.50;39.80;;;;;;6319902;28;20048;-93
2024/02/18 16:29:55;;;;;;;8.70;2.03;;;14.50;44.70;;;;;;6358268;28;20103;-94
2024/02/18 16:33:00;;;;;;;8.38;1.95;;;14.50;46.40;;;;;;6369704;28;20040;-94
2024/02/18 16:36:03;;;;;;;12.50;2.10;;;14.40;47.30;;;;;;6368794;28;20103;-94
2024/02/18 16:39:19;;;;;;;10.10;2.20;;;14.50;52.20;;;;;;6317077;28;20052;-93
2024/02/18 16:42:21;;;;;;;9.15;2.17;;;14.40;52.10;;;;;;6359714;28;20059;-93
2024/02/18 16:45:37;;;;;;;10.57;2.00;;;14.30;58.00;;;;;;6334739;28;20036;-95
2024/02/18 16:48:39;;;;;;;10.57;2.13;;;14.10;62.90;;;;;;6331930;28;20086;-93
2024/02/18 16:51:41;;;;;;;9.25;2.30;;;14.00;68.80;;;;;;6370269;28;20075;-94
2024/02/18 16:54:46;;;;;;;10.35;1.90;;;13.90;75.10;;;;;;6346410;28;20048;-93
2024/02/18 17:01:28;;;;;;;12.55;2.60;;;13.70;87.40;;;;;;6292793;28;20131;-93
2024/02/18 17:04:31;;;;;;;13.05;2.40;;;13.50;90.30;;;;;;6320135;28;20071;-93
2024/02/18 17:07:33;;;;;;;11.25;2.22;;;13.50;90.60;;;;;;6320015;28;20120;-93
2024/02/18 17:10:34;;;;;;;14.40;2.25;;;13.30;92.20;;;;;;6337804;28;20087;-92
2024/02/18 17:13:37;;;;;;;15.40;2.70;;;13.30;93.80;;;;;;6311832;28;20090;-83
2024/02/18 17:16:41;;;;;;;10.65;2.65;;;13.10;95.30;;;;;;6321333;28;20044;-95
2024/02/18 17:19:43;;;;;;;10.82;2.55;;;13.00;95.70;;;;;;6338384;28;20070;-92
2024/02/18 17:22:45;;;;;;;9.25;2.03;;;12.90;96.70;;;;;;6319061;28;20051;-93
2024/02/18 17:25:47;;;;;;;14.75;2.95;;;12.80;97.50;;;;;;6333719;28;20055;-93
2024/02/18 17:28:49;;;;;;;13.55;2.63;;;12.80;98.90;;;;;;6305882;28;20048;-93
2024/02/18 17:31:51;;;;;;;11.68;2.15;;;12.80;99.50;;;;;;6310021;28;20056;-93
2024/02/18 17:34:52;;;;;;;10.65;2.45;;;12.80;99.40;;;;;;6338961;28;20068;-92
2024/02/18 17:37:54;;;;;;;10.25;2.75;;;12.80;99.90;;;;;;6319955;28;20058;-93
2024/02/18 17:40:56;;;;;;;9.60;2.65;;;12.80;99.80;;;;;;6342210;28;20134;-93
2024/02/18 17:44:00;;;;;;;10.85;3.13;;;12.80;99.90;;;;;;6295555;28;20072;-94
2024/02/18 17:47:05;;;;;;;13.50;2.83;;;12.60;99.90;;;;;;6338684;28;20047;-93
2024/02/18 17:50:07;;;;;;;11.57;2.78;;;12.60;99.90;;;;;;6314397;28;20072;-93
2024/02/18 17:53:09;;;;;;;15.70;2.63;;;12.50;99.90;;;;;;6340745;28;20544;-93
2024/02/18 17:56:11;;;;;;;11.50;2.72;;;12.50;99.90;;;;;;6319948;28;20040;-94
2024/02/18 17:59:13;;;;;;;10.65;2.63;;;12.40;99.90;;;;;;6315886;28;20056;-94
2024/02/18 18:02:14;;;;;;;13.68;2.70;;;12.40;99.90;;;;;;6325261;28;20044;-92
2024/02/18 18:05:16;;;;;;;13.55;2.80;;;12.30;99.90;;;;;;6338672;28;20075;-92
2024/02/18 18:08:18;;;;;;;11.80;2.90;;;12.30;99.90;;;;;;6311490;28;20415;-92
2024/02/18 18:11:20;;;;;;;10.40;2.60;;;12.20;99.90;;;;;;6334595;28;20313;-91
2024/02/18 18:14:22;;;;;;;6.55;2.38;;;12.10;99.90;;;;;;6289449;28;20049;-89
2024/02/18 18:17:25;;;;;;;9.00;2.92;;;12.00;99.90;;;;;;6312768;28;20083;-95
2024/02/18 18:20:26;;;;;;;12.05;2.60;;;11.90;99.90;;;;;;6333848;28;20044;-94
2024/02/18 18:23:28;;;;;;;8.82;3.08;;;11.80;99.90;;;;;;6317716;28;20854;-90
2024/02/18 18:26:30;;;;;;;11.00;2.90;;;11.70;99.90;;;;;;6318113;28;20049;-93
2024/02/18 18:29:32;;;;;;;9.15;2.85;;;11.50;99.90;;;;;;6317787;28;20123;-92
2024/02/18 18:32:35;;;;;;;12.20;3.03;;;11.40;99.90;;;;;;6313811;28;20060;-93
2024/02/18 18:35:44;;;;;;;12.50;3.15;;;11.30;99.90;;;;;;6296240;28;20156;-91
2024/02/18 18:38:46;;;;;;;13.23;3.30;;;11.20;99.90;;;;;;6308316;28;20053;-90
2024/02/18 18:41:47;;;;;;;10.55;3.92;;;11.10;99.90;;;;;;6304002;28;20044;-91
2024/02/18 18:44:49;;;;;;;13.48;3.80;;;11.10;99.90;;;;;;6290722;28;20052;-89
2024/02/18 18:47:51;;;;;;;13.20;4.13;;;11.10;99.90;;;;;;6297038;28;20155;-89
2024/02/18 18:50:53;;;;;;;14.50;4.40;;;11.00;99.90;;;;;;6304905;28;20055;-90
2024/02/18 18:53:56;;;;;;;15.73;4.30;;;11.00;99.90;;;;;;6305152;28;20122;-90
2024/02/18 18:56:58;;;;;;;13.82;4.38;;;11.00;99.90;;;;;;6309902;28;20055;-92
2024/02/18 19:00:01;;;;;;;12.65;4.47;;;11.00;99.90;;;;;;6290641;28;20055;-92
2024/02/18 19:03:03;;;;;;;22.75;5.88;;;11.10;99.90;;;;;;6311120;28;20044;-90
2024/02/18 19:06:04;;;;;;;15.30;4.95;;;11.20;99.90;;;;;;6310045;28;20052;-92
2024/02/18 19:09:06;;;;;;;15.35;5.10;;;11.30;99.90;;;;;;6300210;28;20060;-89
2024/02/18 19:12:08;;;;;;;13.80;5.15;;;11.50;99.90;;;;;;6302544;28;20081;-90
2024/02/18 19:15:10;;;;;;;11.98;4.93;;;11.60;99.90;;;;;;6291916;28;20040;-93
2024/02/18 19:18:12;;;;;;;14.70;5.35;;;11.70;99.90;;;;;;6331989;28;20064;-92
2024/02/18 19:21:13;;;;;;;13.10;4.72;;;11.80;99.90;;;;;;6318750;28;20051;-91
2024/02/18 19:24:15;;;;;;;17.90;5.68;;;11.90;99.90;;;;;;6297446;28;20060;-90
2024/02/18 19:27:17;;;;;;;15.20;4.63;;;12.00;99.90;;;;;;6308054;28;20518;-91
2024/02/18 19:30:19;;;;;;;13.82;4.60;;;12.00;99.90;;;;;;6296339;28;20075;-88
2024/02/18 19:33:20;;;;;;;10.20;4.20;;;12.00;99.90;;;;;;6297949;28;20052;-93
2024/02/18 19:36:23;;;;;;;13.27;4.30;;;12.00;99.90;;;;;;6311188;28;20074;-92
2024/02/18 19:39:25;;;;;;;10.20;3.83;;;12.10;99.90;;;;;;6326993;28;20091;-94
2024/02/18 19:42:31;;;;;;;10.65;4.07;;;12.20;99.90;;;;;;6323477;28;20116;-94
2024/02/18 19:45:33;;;;;;;13.70;3.97;;;12.20;99.90;;;;;;6313257;28;20052;-92
2024/02/18 19:48:35;;;;;;;13.43;4.18;;;12.20;99.90;;;;;;6296090;28;20053;-91
2024/02/18 19:51:37;;;;;;;13.10;4.60;;;12.10;99.90;;;;;;6298547;28;20089;-91
2024/02/18 19:54:39;;;;;;;15.65;4.57;;;12.10;99.90;;;;;;6297771;28;20048;-91
2024/02/18 19:57:41;;;;;;;11.15;4.20;;;12.30;99.90;;;;;;6297930;28;20083;-91
2024/02/18 20:00:43;;;;;;;13.25;5.18;;;12.20;99.90;;;;;;6303013;28;20056;-94
2024/02/18 20:03:45;;;;;;;20.65;5.80;;;12.20;99.90;;;;;;6304302;28;20051;-93
2024/02/18 20:06:48;;;;;;;14.05;4.40;;;12.20;99.90;;;;;;6299574;28;20053;-92
2024/02/18 20:09:49;;;;;;;12.95;4.55;;;12.20;99.90;;;;;;6302301;28;20066;-93
2024/02/18 20:12:51;;;;;;;12.80;4.57;;;12.20;99.90;;;;;;6305908;28;20048;-91
2024/02/18 20:15:53;;;;;;;13.93;4.93;;;12.20;99.90;;;;;;6312082;28;20044;-91
2024/02/18 20:18:55;;;;;;;14.68;4.95;;;12.10;99.90;;;;;;6294163;28;20056;-93
2024/02/18 20:21:57;;;;;;;10.48;4.50;;;12.10;99.90;;;;;;6308503;28;20075;-95
2024/02/18 20:24:59;;;;;;;13.68;5.10;;;12.10;99.90;;;;;;6312506;28;20047;-92
2024/02/18 20:28:02;;;;;;;13.48;5.13;;;12.10;99.90;;;;;;6305860;28;20056;-92
2024/02/18 20:31:04;;;;;;;12.55;5.40;;;12.10;99.90;;;;;;6285744;28;20052;-89
2024/02/18 20:34:06;;;;;;;14.10;5.35;;;12.10;99.90;;;;;;6298571;28;20044;-94
2024/02/18 20:37:08;;;;;;;14.52;5.60;;;12.00;99.90;;;;;;6305372;28;20118;-93
2024/02/18 20:40:16;;;;;;;14.88;5.15;;;12.00;99.90;;;;;;6309759;28;20513;-93
2024/02/18 20:43:20;;;;;;;13.50;5.63;;;12.00;99.90;;;;;;6313498;28;20052;-82
2024/02/18 20:46:29;;;;;;;15.32;5.70;;;12.00;99.90;;;;;;6308563;28;20057;-91
2024/02/18 20:49:31;;;;;;;17.85;5.30;;;11.90;99.90;;;;;;6320594;28;20155;-92
2024/02/18 20:52:33;;;;;;;14.05;5.20;;;11.90;99.90;;;;;;6307771;28;20488;-92
2024/02/18 20:55:34;;;;;;;16.55;5.95;;;11.90;99.90;;;;;;6320400;28;20487;-92
2024/02/18 20:58:36;;;;;;;14.23;5.63;;;11.90;99.90;;;;;;6321276;28;20063;-92
2024/02/18 21:01:42;;;;;;;17.05;5.78;;;11.90;99.90;;;;;;6302994;28;20059;-92
2024/02/18 21:04:44;;;;;;;15.13;5.97;;;11.90;99.90;;;;;;6332966;28;20052;-93
2024/02/18 21:07:46;;;;;;;12.95;5.65;;;11.80;99.90;;;;;;6312657;28;20055;-92
2024/02/18 21:10:48;;;;;;;12.63;5.72;;;11.70;99.90;;;;;;6342999;28;20044;-91
2024/02/18 21:13:49;;;;;;;17.08;6.10;;;11.60;99.90;;;;;;6332226;28;20569;-92
2024/02/18 21:16:52;;;;;;;15.63;6.18;;;11.50;99.90;;;;;;6345712;28;20063;-92
2024/02/18 21:19:54;;;;;;;16.90;5.72;;;11.50;99.90;;;;;;6320913;28;20110;-93
2024/02/18 21:22:57;;;;;;;19.95;6.65;;;11.40;99.90;;;;;;6318540;28;20052;-91
2024/02/18 21:26:00;;;;;;;17.20;6.80;;;10.80;99.90;;;;;;6319961;28;20047;-92
2024/02/18 21:29:03;;;;;;;17.75;7.30;;;11.50;99.90;;;;;;6312808;28;20067;-89
2024/02/18 21:32:04;;;;;;;15.80;6.93;;;11.50;99.90;;;;;;6315610;28;20074;-91
2024/02/18 21:35:10;;;;;;;17.02;7.65;;;11.60;99.90;;;;;;6341390;28;20064;-92
2024/02/18 21:38:12;;;;;;;19.02;7.80;;;11.60;99.90;;;;;;6349988;28;20071;-92
2024/02/18 21:41:14;;;;;;;18.90;7.43;;;11.60;99.90;;;;;;6333579;28;20031;-89
2024/02/18 21:44:15;;;;;;;18.42;7.53;;;11.60;99.90;;;;;;6312635;28;20063;-91
2024/02/18 21:47:18;;;;;;;17.20;7.50;;;11.60;99.90;;;;;;6331961;28;20044;-90
2024/02/18 21:50:20;;;;;;;14.95;6.60;;;11.60;99.90;;;;;;6314596;28;20070;-91
2024/02/18 21:53:21;;;;;;;17.05;7.05;;;11.60;99.90;;;;;;6343590;28;20052;-91
2024/02/18 21:56:23;;;;;;;15.00;6.90;;;11.60;99.90;;;;;;6316679;28;20105;-90
2024/02/18 21:59:25;;;;;;;18.13;6.95;;;11.60;99.90;;;;;;6312971;28;20607;-91
2024/02/18 22:02:27;;;;;;;17.73;7.38;;;11.50;99.90;;;;;;6331268;28;20051;-90
2024/02/18 22:05:28;;;;;;;19.02;7.97;;;11.50;99.90;;;;;;6305913;28;20059;-91
2024/02/18 22:08:30;;;;;;;14.27;6.68;;;11.40;99.90;;;;;;6328856;28;20040;-90
2024/02/18 22:11:32;;;;;;;20.17;7.28;;;11.30;99.90;;;;;;6303135;28;20484;-90
2024/02/18 22:14:34;;;;;;;17.40;7.40;;;11.20;99.90;;;;;;6307034;28;20044;-89
2024/02/18 22:17:36;;;;;;;17.73;7.38;;;11.10;99.90;;;;;;6327628;28;20052;-90
2024/02/18 22:20:37;;;;;;;17.58;7.45;;;11.00;99.90;;;;;;6304413;28;20736;-91
2024/02/18 22:23:39;;;;;;;13.90;6.95;;;11.00;99.90;;;;;;6327499;28;20419;-90
2024/02/18 22:26:41;;;;;;;17.55;7.70;;;10.90;99.90;;;;;;6304864;28;20041;-90
2024/02/18 22:29:43;;;;;;;17.98;8.10;;;11.10;99.90;;;;;;6325559;28;20063;-92
2024/02/18 22:32:45;;;;;;;15.65;6.63;;;11.00;99.90;;;;;;6306673;28;20640;-91
2024/02/18 22:35:47;;;;;;;18.70;7.15;;;11.10;99.90;;;;;;6327963;28;20055;-89
2024/02/18 22:38:49;;;;;;;19.63;7.18;;;11.10;99.90;;;;;;6304907;28;20072;-89
2024/02/18 22:41:50;;;;;;;15.75;7.07;;;11.20;99.90;;;;;;6317739;28;20045;-88
2024/02/18 22:44:52;;;;;;;14.20;6.50;;;11.20;99.90;;;;;;6338063;28;20060;-90
2024/02/18 22:47:54;;;;;;;14.75;6.32;;;11.20;99.90;;;;;;6308609;28;20059;-90
2024/02/18 22:50:55;;;;;;;16.17;6.97;;;11.10;99.90;;;;;;6325907;28;20040;-90
2024/02/18 22:53:57;;;;;;;16.15;7.40;;;11.00;99.90;;;;;;6334154;28;20051;-90
2024/02/18 22:56:59;;;;;;;16.30;7.13;;;10.90;99.90;;;;;;6312267;28;20048;-90
2024/02/18 23:00:02;;;;;;;15.30;6.80;;;10.80;99.90;;;;;;6309624;28;20048;-90
2024/02/18 23:03:04;;;;;;;19.00;7.85;;;10.70;99.90;;;;;;6307581;28;20456;-90
2024/02/18 23:06:06;;;;;;;22.40;7.45;;;10.60;99.90;;;;;;6328133;28;20206;-90
2024/02/18 23:09:08;;;;;;;20.15;7.72;;;10.50;99.90;;;;;;6304634;28;20133;-90
2024/02/18 23:12:11;;;;;;;16.05;7.00;;;10.60;99.90;;;;;;6317041;28;20067;-90
2024/02/18 23:15:13;;;;;;;18.08;7.63;;;10.60;99.90;;;;;;6323205;28;20141;-91
2024/02/18 23:18:16;;;;;;;17.88;6.90;;;10.60;99.90;;;;;;6303678;28;20071;-90
2024/02/18 23:21:18;;;;;;;17.80;7.40;;;10.60;99.90;;;;;;6329374;28;20051;-89
2024/02/18 23:24:20;;;;;;;17.60;6.32;;;10.70;99.90;;;;;;6303841;28;20063;-91
2024/02/18 23:27:22;;;;;;;16.98;6.78;;;10.70;99.90;;;;;;6327576;28;20244;-89
2024/02/18 23:30:24;;;;;;;16.20;6.15;;;10.70;99.90;;;;;;6293845;28;20044;-90
2024/02/18 23:33:26;;;;;;;16.30;5.82;;;10.70;99.90;;;;;;6326241;28;20059;-90
2024/02/18 23:36:29;;;;;;;17.85;5.90;;;10.70;99.90;;;;;;6309048;28;20131;-90
2024/02/18 23:39:30;;;;;;;16.40;6.10;;;10.50;99.90;;;;;;6317690;28;20045;-90
2024/02/18 23:42:32;;;;;;;15.15;5.45;;;10.40;99.90;;;;;;6328488;28;20050;-87
2024/02/18 23:45:34;;;;;;;16.63;6.00;;;10.40;99.90;;;;;;6305704;28;20056;-90
2024/02/18 23:48:36;;;;;;;17.95;6.43;;;10.30;99.90;;;;;;6297927;28;20040;-90
2024/02/18 23:51:38;;;;;;;18.83;5.88;;;10.30;99.90;;;;;;6338992;28;20063;-90
2024/02/18 23:54:40;;;;;;;16.33;5.60;;;10.30;99.90;;;;;;6315014;28;20093;-89
2024/02/18 23:57:41;;;;;;;16.88;6.07;;;10.30;99.90;;;;;;6335147;28;20116;-91
